createdAt,value
2018-04-18T00:00:43.335Z,1025.40
2018-04-18T00:01:43.333Z,1025.41
2018-04-18T00:02:43.330Z,1025.43
2018-04-18T00:03:43.326Z,1025.42
2018-04-18T00:04:43.323Z,1025.45
2018-04-18T00:05:43.321Z,1025.44
2018-04-18T00:06:43.317Z,1025.49
2018-04-18T00:07:43.314Z,1025.49
2018-04-18T00:08:43.314Z,1025.49
2018-04-18T00:09:43.304Z,1025.50
2018-04-18T00:10:43.305Z,1025.51
2018-04-18T00:11:43.304Z,1025.51
2018-04-18T00:12:43.298Z,1025.51
2018-04-18T00:13:43.299Z,1025.49
2018-04-18T00:14:43.297Z,1025.51
2018-04-18T00:15:43.290Z,1025.50
2018-04-18T00:16:43.292Z,1025.48
2018-04-18T00:17:43.283Z,1025.45
2018-04-18T00:18:43.283Z,1025.50
2018-04-18T00:19:43.281Z,1025.51
2018-04-18T00:20:43.286Z,1025.48
2018-04-18T00:21:43.267Z,1025.49
2018-04-18T00:22:43.267Z,1025.49
2018-04-18T00:23:43.263Z,1025.54
2018-04-18T00:24:43.260Z,1025.53
2018-04-18T00:25:43.256Z,1025.52
2018-04-18T00:26:43.256Z,1025.53
2018-04-18T00:27:43.256Z,1025.53
2018-04-18T00:28:43.250Z,1025.53
2018-04-18T00:29:43.241Z,1025.55
2018-04-18T00:30:43.248Z,1025.53
2018-04-18T00:31:43.239Z,1025.60
2018-04-18T00:32:43.236Z,1025.58
2018-04-18T00:33:43.229Z,1025.61
2018-04-18T00:34:43.229Z,1025.58
2018-04-18T00:35:43.225Z,1025.60
2018-04-18T00:36:43.220Z,1025.55
2018-04-18T00:37:43.217Z,1025.59
2018-04-18T00:38:43.216Z,1025.54
2018-04-18T00:39:43.212Z,1025.56
2018-04-18T00:40:43.207Z,1025.54
2018-04-18T00:41:43.201Z,1025.51
2018-04-18T00:42:43.202Z,1025.50
2018-04-18T00:43:43.199Z,1025.47
2018-04-18T00:44:43.193Z,1025.50
2018-04-18T00:45:43.197Z,1025.46
2018-04-18T00:46:43.192Z,1025.50
2018-04-18T00:47:43.185Z,1025.51
2018-04-18T00:48:43.185Z,1025.60
2018-04-18T00:49:43.176Z,1025.60
2018-04-18T00:50:43.178Z,1025.63
2018-04-18T00:51:43.173Z,1025.65
2018-04-18T00:52:43.166Z,1025.60
2018-04-18T00:53:43.164Z,1025.58
2018-04-18T00:54:43.160Z,1025.58
2018-04-18T00:55:43.156Z,1025.58
2018-04-18T00:56:43.153Z,1025.62
2018-04-18T00:57:43.150Z,1025.63
2018-04-18T00:58:43.146Z,1025.62
2018-04-18T00:59:43.144Z,1025.61
2018-04-18T01:00:43.144Z,1025.59
2018-04-18T01:01:43.138Z,1025.56
2018-04-18T01:02:43.140Z,1025.57
2018-04-18T01:03:43.137Z,1025.56
2018-04-18T01:04:43.161Z,1025.59
2018-04-18T01:05:43.123Z,1025.54
2018-04-18T01:06:43.121Z,1025.56
2018-04-18T01:07:43.112Z,1025.53
2018-04-18T01:08:43.111Z,1025.53
2018-04-18T01:09:43.109Z,1025.55
2018-04-18T01:10:43.103Z,1025.55
2018-04-18T01:11:43.103Z,1025.54
2018-04-18T01:12:43.099Z,1025.56
2018-04-18T01:13:43.098Z,1025.55
2018-04-18T01:14:43.091Z,1025.58
2018-04-18T01:15:43.091Z,1025.58
2018-04-18T01:16:43.084Z,1025.61
2018-04-18T01:17:43.084Z,1025.60
2018-04-18T01:18:43.078Z,1025.61
2018-04-18T01:19:43.079Z,1025.67
2018-04-18T01:20:43.070Z,1025.66
2018-04-18T01:21:43.063Z,1025.66
2018-04-18T01:22:43.064Z,1025.69
2018-04-18T01:23:43.064Z,1025.67
2018-04-18T01:24:43.051Z,1025.69
2018-04-18T01:25:43.051Z,1025.72
2018-04-18T01:26:43.049Z,1025.69
2018-04-18T01:27:43.046Z,1025.69
2018-04-18T01:28:43.047Z,1025.72
2018-04-18T01:29:43.038Z,1025.72
2018-04-18T01:30:43.035Z,1025.75
2018-04-18T01:31:43.032Z,1025.74
2018-04-18T01:32:43.027Z,1025.76
2018-04-18T01:33:43.027Z,1025.78
2018-04-18T01:34:43.016Z,1025.77
2018-04-18T01:35:43.018Z,1025.78
2018-04-18T01:36:43.010Z,1025.77
2018-04-18T01:37:43.010Z,1025.79
2018-04-18T01:38:43.004Z,1025.78
2018-04-18T01:39:43.002Z,1025.82
2018-04-18T01:40:42.997Z,1025.83
2018-04-18T01:41:43.050Z,1025.87
2018-04-18T01:42:42.990Z,1025.81
2018-04-18T01:43:42.985Z,1025.84
2018-04-18T01:44:42.980Z,1025.86
2018-04-18T01:45:42.985Z,1025.87
2018-04-18T01:46:42.978Z,1025.88
2018-04-18T01:47:42.974Z,1025.85
2018-04-18T01:48:42.965Z,1025.89
2018-04-18T01:49:42.965Z,1025.88
2018-04-18T01:50:42.962Z,1025.86
2018-04-18T01:51:42.957Z,1025.92
2018-04-18T01:52:42.954Z,1025.89
2018-04-18T01:53:42.950Z,1025.90
2018-04-18T01:54:42.951Z,1025.91
2018-04-18T01:55:42.943Z,1025.92
2018-04-18T01:56:42.938Z,1025.91
2018-04-18T01:57:42.934Z,1025.87
2018-04-18T01:58:42.931Z,1025.91
2018-04-18T01:59:42.931Z,1025.94
2018-04-18T02:00:42.931Z,1025.95
2018-04-18T02:01:42.919Z,1025.91
2018-04-18T02:02:42.917Z,1025.93
2018-04-18T02:03:42.913Z,1025.93
2018-04-18T02:04:42.911Z,1025.95
2018-04-18T02:05:42.902Z,1025.96
2018-04-18T02:06:42.899Z,1025.92
2018-04-18T02:07:42.897Z,1025.96
2018-04-18T02:08:42.890Z,1026.00
2018-04-18T02:09:42.891Z,1025.99
2018-04-18T02:10:42.885Z,1025.99
2018-04-18T02:11:42.879Z,1026.01
2018-04-18T02:12:42.925Z,1025.97
2018-04-18T02:13:42.871Z,1025.99
2018-04-18T02:14:42.873Z,1025.99
2018-04-18T02:15:42.863Z,1026.03
2018-04-18T02:16:42.858Z,1026.09
2018-04-18T02:17:42.855Z,1026.12
2018-04-18T02:18:42.847Z,1026.13
2018-04-18T02:19:42.851Z,1026.13
2018-04-18T02:20:42.842Z,1026.16
2018-04-18T02:21:42.840Z,1026.12
2018-04-18T02:22:42.835Z,1026.15
2018-04-18T02:23:42.828Z,1026.14
2018-04-18T02:24:42.830Z,1026.16
2018-04-18T02:25:42.824Z,1026.18
2018-04-18T02:26:42.821Z,1026.15
2018-04-18T02:27:42.817Z,1026.15
2018-04-18T02:28:42.810Z,1026.14
2018-04-18T02:29:42.816Z,1026.14
2018-04-18T02:30:42.801Z,1026.14
2018-04-18T02:31:42.799Z,1026.15
2018-04-18T02:32:42.800Z,1026.15
2018-04-18T02:33:42.802Z,1026.16
2018-04-18T02:34:42.790Z,1026.19
2018-04-18T02:35:42.779Z,1026.16
2018-04-18T02:36:42.776Z,1026.15
2018-04-18T02:37:42.775Z,1026.19
2018-04-18T02:38:42.774Z,1026.17
2018-04-18T02:39:42.767Z,1026.18
2018-04-18T02:40:42.762Z,1026.19
2018-04-18T02:41:42.756Z,1026.19
2018-04-18T02:42:42.775Z,1026.18
2018-04-18T02:43:42.749Z,1026.14
2018-04-18T02:44:42.747Z,1026.19
2018-04-18T02:45:42.741Z,1026.17
2018-04-18T02:46:42.737Z,1026.17
2018-04-18T02:47:42.733Z,1026.18
2018-04-18T02:48:42.726Z,1026.16
2018-04-18T02:49:42.726Z,1026.21
2018-04-18T02:50:42.720Z,1026.18
2018-04-18T02:51:42.714Z,1026.17
2018-04-18T02:52:42.710Z,1026.21
2018-04-18T02:53:42.705Z,1026.18
2018-04-18T02:54:42.702Z,1026.16
2018-04-18T02:55:42.698Z,1026.13
2018-04-18T02:56:42.691Z,1026.15
2018-04-18T02:57:42.690Z,1026.19
2018-04-18T02:58:42.685Z,1026.15
2018-04-18T02:59:42.686Z,1026.15
2018-04-18T03:00:42.678Z,1026.17
2018-04-18T03:01:42.669Z,1026.17
2018-04-18T03:02:42.676Z,1026.21
2018-04-18T03:03:42.665Z,1026.18
2018-04-18T03:04:42.659Z,1026.20
2018-04-18T03:05:42.656Z,1026.21
2018-04-18T03:06:42.652Z,1026.17
2018-04-18T03:07:42.648Z,1026.18
2018-04-18T03:08:42.642Z,1026.21
2018-04-18T03:09:42.647Z,1026.14
2018-04-18T03:10:42.630Z,1026.15
2018-04-18T03:11:42.631Z,1026.19
2018-04-18T03:12:42.626Z,1026.17
2018-04-18T03:13:42.619Z,1026.21
2018-04-18T03:14:42.619Z,1026.19
2018-04-18T03:15:42.614Z,1026.23
2018-04-18T03:16:42.614Z,1026.25
2018-04-18T03:17:42.605Z,1026.22
2018-04-18T03:18:42.600Z,1026.28
2018-04-18T03:19:42.597Z,1026.21
2018-04-18T03:20:42.590Z,1026.22
2018-04-18T03:21:42.587Z,1026.26
2018-04-18T03:22:42.585Z,1026.24
2018-04-18T03:23:42.580Z,1026.29
2018-04-18T03:24:42.575Z,1026.25
2018-04-18T03:25:42.571Z,1026.26
2018-04-18T03:26:42.566Z,1026.23
2018-04-18T03:27:42.562Z,1026.25
2018-04-18T03:28:42.558Z,1026.28
2018-04-18T03:29:42.553Z,1026.31
2018-04-18T03:30:42.553Z,1026.31
2018-04-18T03:31:42.544Z,1026.33
2018-04-18T03:32:42.547Z,1026.33
2018-04-18T03:33:42.540Z,1026.34
2018-04-18T03:34:42.530Z,1026.38
2018-04-18T03:35:42.526Z,1026.34
2018-04-18T03:36:42.522Z,1026.35
2018-04-18T03:37:42.518Z,1026.35
2018-04-18T03:38:42.513Z,1026.33
2018-04-18T03:39:42.512Z,1026.37
2018-04-18T03:40:42.507Z,1026.32
2018-04-18T03:41:42.503Z,1026.38
2018-04-18T03:42:42.496Z,1026.40
2018-04-18T03:43:42.492Z,1026.39
2018-04-18T03:44:42.495Z,1026.42
2018-04-18T03:45:42.483Z,1026.42
2018-04-18T03:46:42.487Z,1026.44
2018-04-18T03:47:42.475Z,1026.45
2018-04-18T03:48:42.485Z,1026.44
2018-04-18T03:49:42.468Z,1026.44
2018-04-18T03:50:42.460Z,1026.47
2018-04-18T03:51:42.456Z,1026.46
2018-04-18T03:52:42.452Z,1026.46
2018-04-18T03:53:42.452Z,1026.43
2018-04-18T03:54:42.439Z,1026.46
2018-04-18T03:55:42.436Z,1026.46
2018-04-18T03:56:42.425Z,1026.50
2018-04-18T03:57:42.428Z,1026.46
2018-04-18T03:58:42.423Z,1026.46
2018-04-18T03:59:42.419Z,1026.42
2018-04-18T04:00:42.419Z,1026.43
2018-04-18T04:01:42.409Z,1026.44
2018-04-18T04:02:42.408Z,1026.42
2018-04-18T04:03:42.398Z,1026.46
2018-04-18T04:04:42.397Z,1026.46
2018-04-18T04:05:42.387Z,1026.45
2018-04-18T04:06:42.387Z,1026.49
2018-04-18T04:07:42.384Z,1026.47
2018-04-18T04:08:42.376Z,1026.47
2018-04-18T04:09:42.376Z,1026.45
2018-04-18T04:10:42.369Z,1026.47
2018-04-18T04:11:42.368Z,1026.45
2018-04-18T04:12:42.357Z,1026.49
2018-04-18T04:13:42.353Z,1026.48
2018-04-18T04:14:42.351Z,1026.47
2018-04-18T04:15:42.347Z,1026.47
2018-04-18T04:16:42.341Z,1026.48
2018-04-18T04:17:42.336Z,1026.49
2018-04-18T04:18:42.335Z,1026.48
2018-04-18T04:19:42.330Z,1026.50
2018-04-18T04:20:42.329Z,1026.48
2018-04-18T04:21:42.322Z,1026.47
2018-04-18T04:22:42.318Z,1026.53
2018-04-18T04:23:42.315Z,1026.54
2018-04-18T04:24:42.304Z,1026.56
2018-04-18T04:25:42.306Z,1026.54
2018-04-18T04:26:42.296Z,1026.55
2018-04-18T04:27:42.294Z,1026.57
2018-04-18T04:28:42.288Z,1026.58
2018-04-18T04:29:42.288Z,1026.61
2018-04-18T04:30:42.282Z,1026.60
2018-04-18T04:31:42.272Z,1026.63
2018-04-18T04:32:42.268Z,1026.64
2018-04-18T04:33:42.264Z,1026.68
2018-04-18T04:34:42.264Z,1026.66
2018-04-18T04:35:42.258Z,1026.65
2018-04-18T04:36:42.256Z,1026.66
2018-04-18T04:37:42.249Z,1026.71
2018-04-18T04:38:42.246Z,1026.68
2018-04-18T04:39:42.273Z,1026.70
2018-04-18T04:40:42.239Z,1026.69
2018-04-18T04:41:42.234Z,1026.65
2018-04-18T04:42:42.225Z,1026.67
2018-04-18T04:43:42.222Z,1026.68
2018-04-18T04:44:42.221Z,1026.65
2018-04-18T04:45:42.226Z,1026.66
2018-04-18T04:46:42.213Z,1026.66
2018-04-18T04:47:42.207Z,1026.65
2018-04-18T04:48:42.208Z,1026.69
2018-04-18T04:49:42.200Z,1026.69
2018-04-18T04:50:42.198Z,1026.76
2018-04-18T04:51:42.192Z,1026.76
2018-04-18T04:52:42.186Z,1026.82
2018-04-18T04:53:42.186Z,1026.79
2018-04-18T04:54:42.180Z,1026.83
2018-04-18T04:55:42.177Z,1026.85
2018-04-18T04:56:42.170Z,1026.87
2018-04-18T04:57:42.168Z,1026.92
2018-04-18T04:58:42.164Z,1026.91
2018-04-18T04:59:42.159Z,1026.94
2018-04-18T05:00:42.162Z,1026.98
2018-04-18T05:01:42.147Z,1026.98
2018-04-18T05:02:42.147Z,1026.98
2018-04-18T05:03:42.144Z,1026.96
2018-04-18T05:04:42.138Z,1026.98
2018-04-18T05:05:42.142Z,1026.97
2018-04-18T05:06:42.132Z,1027.00
2018-04-18T05:07:42.133Z,1027.02
2018-04-18T05:08:42.126Z,1027.07
2018-04-18T05:09:42.121Z,1027.02
2018-04-18T05:10:42.119Z,1027.03
2018-04-18T05:11:42.112Z,1027.01
2018-04-18T05:12:42.109Z,1027.07
2018-04-18T05:13:42.106Z,1027.06
2018-04-18T05:14:42.106Z,1027.10
2018-04-18T05:15:42.102Z,1027.10
2018-04-18T05:16:42.098Z,1027.11
2018-04-18T05:17:42.096Z,1027.13
2018-04-18T05:18:42.098Z,1027.12
2018-04-18T05:19:42.090Z,1027.08
2018-04-18T05:20:42.086Z,1027.07
2018-04-18T05:21:42.079Z,1027.09
2018-04-18T05:22:42.079Z,1027.08
2018-04-18T05:23:42.081Z,1027.07
2018-04-18T05:24:42.075Z,1027.10
2018-04-18T05:25:42.072Z,1027.10
2018-04-18T05:26:42.076Z,1027.11
2018-04-18T05:27:42.071Z,1027.12
2018-04-18T05:28:42.082Z,1027.10
2018-04-18T05:29:42.062Z,1027.11
2018-04-18T05:30:42.067Z,1027.16
2018-04-18T05:31:42.062Z,1027.16
2018-04-18T05:32:42.061Z,1027.16
2018-04-18T05:33:42.056Z,1027.15
2018-04-18T05:34:42.056Z,1027.20
2018-04-18T05:35:42.057Z,1027.16
2018-04-18T05:36:42.052Z,1027.18
2018-04-18T05:37:42.049Z,1027.19
2018-04-18T05:38:42.051Z,1027.21
2018-04-18T05:39:42.050Z,1027.25
2018-04-18T05:40:42.050Z,1027.24
2018-04-18T05:41:42.050Z,1027.28
2018-04-18T05:42:42.047Z,1027.26
2018-04-18T05:43:42.046Z,1027.29
2018-04-18T05:44:42.049Z,1027.27
2018-04-18T05:45:42.044Z,1027.29
2018-04-18T05:46:42.046Z,1027.29
2018-04-18T05:47:42.043Z,1027.33
2018-04-18T05:48:42.106Z,1027.35
2018-04-18T05:49:42.048Z,1027.36
2018-04-18T05:50:42.047Z,1027.35
2018-04-18T05:51:42.044Z,1027.38
2018-04-18T05:52:42.043Z,1027.39
2018-04-18T05:53:42.048Z,1027.36
2018-04-18T05:54:42.044Z,1027.31
2018-04-18T05:55:42.047Z,1027.35
2018-04-18T05:56:42.047Z,1027.35
2018-04-18T05:57:42.097Z,1027.39
2018-04-18T05:58:42.046Z,1027.37
2018-04-18T05:59:42.043Z,1027.39
2018-04-18T06:00:42.046Z,1027.40
2018-04-18T06:01:42.046Z,1027.40
2018-04-18T06:02:42.044Z,1027.41
2018-04-18T06:03:42.048Z,1027.39
2018-04-18T06:04:42.110Z,1027.41
2018-04-18T06:05:42.053Z,1027.45
2018-04-18T06:06:42.051Z,1027.46
2018-04-18T06:07:42.053Z,1027.48
2018-04-18T06:08:42.050Z,1027.46
2018-04-18T06:09:42.054Z,1027.45
2018-04-18T06:10:42.057Z,1027.44
2018-04-18T06:11:42.057Z,1027.51
2018-04-18T06:12:42.059Z,1027.49
2018-04-18T06:13:42.070Z,1027.48
2018-04-18T06:14:42.063Z,1027.51
2018-04-18T06:15:42.064Z,1027.49
2018-04-18T06:16:42.069Z,1027.51
2018-04-18T06:17:42.065Z,1027.50
2018-04-18T06:18:42.067Z,1027.49
2018-04-18T06:19:42.072Z,1027.50
2018-04-18T06:20:42.076Z,1027.53
2018-04-18T06:21:42.078Z,1027.55
2018-04-18T06:22:42.079Z,1027.55
2018-04-18T06:23:42.080Z,1027.57
2018-04-18T06:24:42.084Z,1027.59
2018-04-18T06:25:42.086Z,1027.60
2018-04-18T06:26:42.091Z,1027.66
2018-04-18T06:27:42.093Z,1027.65
2018-04-18T06:28:42.097Z,1027.64
2018-04-18T06:29:42.098Z,1027.66
2018-04-18T06:30:42.100Z,1027.67
2018-04-18T06:31:42.102Z,1027.69
2018-04-18T06:32:42.107Z,1027.73
2018-04-18T06:33:42.139Z,1027.70
2018-04-18T06:34:42.114Z,1027.72
2018-04-18T06:35:42.130Z,1027.69
2018-04-18T06:36:42.118Z,1027.70
2018-04-18T06:37:42.123Z,1027.71
2018-04-18T06:38:42.130Z,1027.71
2018-04-18T06:39:42.139Z,1027.72
2018-04-18T06:40:42.136Z,1027.75
2018-04-18T06:41:42.145Z,1027.72
2018-04-18T06:42:42.144Z,1027.75
2018-04-18T06:43:42.147Z,1027.78
2018-04-18T06:44:42.148Z,1027.76
2018-04-18T06:45:42.153Z,1027.76
2018-04-18T06:46:42.158Z,1027.77
2018-04-18T06:47:42.164Z,1027.78
2018-04-18T06:48:42.168Z,1027.81
2018-04-18T06:49:42.171Z,1027.81
2018-04-18T06:50:42.180Z,1027.80
2018-04-18T06:51:42.184Z,1027.83
2018-04-18T06:52:42.184Z,1027.83
2018-04-18T06:53:42.191Z,1027.83
2018-04-18T06:54:42.196Z,1027.81
2018-04-18T06:55:42.196Z,1027.84
2018-04-18T06:56:42.203Z,1027.84
2018-04-18T06:57:42.262Z,1027.85
2018-04-18T06:58:42.212Z,1027.84
2018-04-18T06:59:42.219Z,1027.82
2018-04-18T07:00:42.228Z,1027.86
2018-04-18T07:01:42.229Z,1027.85
2018-04-18T07:02:42.232Z,1027.87
2018-04-18T07:03:42.238Z,1027.83
2018-04-18T07:04:42.247Z,1027.86
2018-04-18T07:05:42.256Z,1027.84
2018-04-18T07:06:42.253Z,1027.83
2018-04-18T07:07:42.263Z,1027.84
2018-04-18T07:08:42.269Z,1027.83
2018-04-18T07:09:42.274Z,1027.86
2018-04-18T07:10:42.279Z,1027.86
2018-04-18T07:11:42.286Z,1027.86
2018-04-18T07:12:42.290Z,1027.87
2018-04-18T07:13:42.296Z,1027.88
2018-04-18T07:14:42.303Z,1027.91
2018-04-18T07:15:42.310Z,1027.91
2018-04-18T07:16:42.640Z,1027.92
2018-04-18T07:17:42.322Z,1027.91
2018-04-18T07:18:42.332Z,1027.92
2018-04-18T07:19:42.461Z,1027.91
2018-04-18T07:20:42.344Z,1027.94
2018-04-18T07:21:42.367Z,1027.91
2018-04-18T07:22:42.353Z,1027.95
2018-04-18T07:23:42.362Z,1027.92
2018-04-18T07:24:42.366Z,1027.96
2018-04-18T07:25:42.411Z,1027.95
2018-04-18T07:26:42.379Z,1027.95
2018-04-18T07:27:42.436Z,1027.93
2018-04-18T07:28:42.393Z,1027.95
2018-04-18T07:29:42.401Z,1027.93
2018-04-18T07:30:42.408Z,1027.94
2018-04-18T07:31:42.414Z,1027.98
2018-04-18T07:32:42.424Z,1028.01
2018-04-18T07:33:42.431Z,1028.01
2018-04-18T07:34:42.437Z,1028.03
2018-04-18T07:35:42.592Z,1028.01
2018-04-18T07:36:42.485Z,1028.04
2018-04-18T07:37:42.460Z,1028.07
2018-04-18T07:38:42.466Z,1028.04
2018-04-18T07:39:42.475Z,1028.04
2018-04-18T07:40:42.584Z,1028.06
2018-04-18T07:41:42.500Z,1028.05
2018-04-18T07:42:42.501Z,1028.09
2018-04-18T07:43:42.506Z,1028.08
2018-04-18T07:44:42.513Z,1028.10
2018-04-18T07:45:42.662Z,1028.08
2018-04-18T07:46:42.677Z,1028.12
2018-04-18T07:47:42.560Z,1028.14
2018-04-18T07:48:42.541Z,1028.13
2018-04-18T07:49:42.557Z,1028.09
2018-04-18T07:50:42.558Z,1028.12
2018-04-18T07:51:42.565Z,1028.13
2018-04-18T07:52:42.575Z,1028.13
2018-04-18T07:53:42.741Z,1028.10
2018-04-18T07:54:42.590Z,1028.11
2018-04-18T07:55:42.598Z,1028.15
2018-04-18T07:56:42.604Z,1028.14
2018-04-18T07:57:42.610Z,1028.11
2018-04-18T07:58:42.619Z,1028.12
2018-04-18T07:59:42.624Z,1028.15
2018-04-18T08:00:42.637Z,1028.17
2018-04-18T08:01:42.643Z,1028.19
2018-04-18T08:02:42.646Z,1028.20
2018-04-18T08:03:42.664Z,1028.21
2018-04-18T08:04:42.659Z,1028.22
2018-04-18T08:05:42.664Z,1028.20
2018-04-18T08:06:42.672Z,1028.21
2018-04-18T08:07:42.678Z,1028.17
2018-04-18T08:08:42.684Z,1028.14
2018-04-18T08:09:42.689Z,1028.18
2018-04-18T08:10:42.697Z,1028.20
2018-04-18T08:11:42.706Z,1028.14
2018-04-18T08:12:42.710Z,1028.17
2018-04-18T08:13:42.713Z,1028.17
2018-04-18T08:14:42.731Z,1028.19
2018-04-18T08:15:42.729Z,1028.20
2018-04-18T08:16:42.728Z,1028.21
2018-04-18T08:17:42.734Z,1028.19
2018-04-18T08:18:42.740Z,1028.19
2018-04-18T08:19:42.775Z,1028.20
2018-04-18T08:20:42.781Z,1028.20
2018-04-18T08:21:42.811Z,1028.22
2018-04-18T08:22:42.763Z,1028.23
2018-04-18T08:23:42.761Z,1028.23
2018-04-18T08:24:42.788Z,1028.24
2018-04-18T08:25:42.771Z,1028.25
2018-04-18T08:26:42.778Z,1028.24
2018-04-18T08:27:42.783Z,1028.22
2018-04-18T08:28:42.787Z,1028.20
2018-04-18T08:29:42.793Z,1028.23
2018-04-18T08:30:42.798Z,1028.23
2018-04-18T08:31:42.978Z,1028.22
2018-04-18T08:32:42.808Z,1028.28
2018-04-18T08:33:42.813Z,1028.22
2018-04-18T08:34:42.820Z,1028.26
2018-04-18T08:35:42.821Z,1028.24
2018-04-18T08:36:42.832Z,1028.25
2018-04-18T08:37:42.945Z,1028.27
2018-04-18T08:38:42.835Z,1028.27
2018-04-18T08:39:42.895Z,1028.26
2018-04-18T08:40:42.992Z,1028.29
2018-04-18T08:41:42.846Z,1028.29
2018-04-18T08:42:42.879Z,1028.28
2018-04-18T08:43:42.855Z,1028.25
2018-04-18T08:44:42.858Z,1028.26
2018-04-18T08:45:42.862Z,1028.26
2018-04-18T08:46:42.867Z,1028.29
2018-04-18T08:47:42.875Z,1028.28
2018-04-18T08:48:42.959Z,1028.23
2018-04-18T08:49:42.879Z,1028.26
2018-04-18T08:50:42.883Z,1028.24
2018-04-18T08:51:42.887Z,1028.24
2018-04-18T08:52:42.895Z,1028.23
2018-04-18T08:53:43.106Z,1028.18
2018-04-18T08:54:42.900Z,1028.23
2018-04-18T08:55:42.900Z,1028.19
2018-04-18T08:56:42.904Z,1028.23
2018-04-18T08:57:42.910Z,1028.20
2018-04-18T08:58:43.009Z,1028.18
2018-04-18T08:59:42.983Z,1028.20
2018-04-18T09:00:42.920Z,1028.18
2018-04-18T09:01:43.051Z,1028.16
2018-04-18T09:02:42.944Z,1028.17
2018-04-18T09:03:42.938Z,1028.15
2018-04-18T09:04:43.267Z,1028.12
2018-04-18T09:05:42.941Z,1028.13
2018-04-18T09:06:42.944Z,1028.13
2018-04-18T09:07:42.948Z,1028.09
2018-04-18T09:08:42.952Z,1028.10
2018-04-18T09:09:43.000Z,1028.09
2018-04-18T09:10:42.962Z,1028.09
2018-04-18T09:11:43.051Z,1028.11
2018-04-18T09:12:42.975Z,1028.09
2018-04-18T09:13:42.975Z,1028.05
2018-04-18T09:14:43.122Z,1028.08
2018-04-18T09:15:42.991Z,1028.07
2018-04-18T09:16:42.986Z,1028.06
2018-04-18T09:17:42.999Z,1028.06
2018-04-18T09:18:43.202Z,1028.12
2018-04-18T09:19:43.156Z,1028.09
2018-04-18T09:20:43.005Z,1028.08
2018-04-18T09:21:43.006Z,1028.00
2018-04-18T09:22:43.009Z,1028.06
2018-04-18T09:23:43.015Z,1028.05
2018-04-18T09:24:43.019Z,1028.05
2018-04-18T09:25:43.037Z,1028.08
2018-04-18T09:26:43.024Z,1028.10
2018-04-18T09:27:43.028Z,1028.08
2018-04-18T09:28:43.349Z,1028.07
2018-04-18T09:29:43.053Z,1028.02
2018-04-18T09:30:43.041Z,1028.01
2018-04-18T09:31:43.038Z,1028.03
2018-04-18T09:32:43.124Z,1028.01
2018-04-18T09:33:43.049Z,1028.00
2018-04-18T09:34:43.053Z,1028.01
2018-04-18T09:35:43.058Z,1027.97
2018-04-18T09:36:43.061Z,1028.01
2018-04-18T09:37:43.065Z,1028.00
2018-04-18T09:38:43.093Z,1027.98
2018-04-18T09:39:43.088Z,1028.00
2018-04-18T09:40:43.077Z,1028.02
2018-04-18T09:41:43.076Z,1028.01
2018-04-18T09:42:43.083Z,1028.03
2018-04-18T09:43:43.087Z,1028.02
2018-04-18T09:44:43.094Z,1028.00
2018-04-18T09:45:43.099Z,1027.99
2018-04-18T09:46:43.100Z,1027.99
2018-04-18T09:47:43.104Z,1028.02
2018-04-18T09:48:43.109Z,1028.00
2018-04-18T09:49:43.112Z,1028.01
2018-04-18T09:50:43.236Z,1027.98
2018-04-18T09:51:43.120Z,1027.97
2018-04-18T09:52:43.148Z,1027.97
2018-04-18T09:53:43.133Z,1027.96
2018-04-18T09:54:43.138Z,1028.00
2018-04-18T09:55:43.286Z,1028.00
2018-04-18T09:56:43.355Z,1028.04
2018-04-18T09:57:43.197Z,1027.99
2018-04-18T09:58:43.145Z,1028.01
2018-04-18T09:59:43.235Z,1028.00
2018-04-18T10:00:43.166Z,1027.96
2018-04-18T10:01:43.157Z,1027.98
2018-04-18T10:02:43.160Z,1027.96
2018-04-18T10:03:43.165Z,1027.93
2018-04-18T10:04:43.177Z,1027.93
2018-04-18T10:05:43.172Z,1027.96
2018-04-18T10:06:43.171Z,1027.93
2018-04-18T10:07:43.183Z,1027.90
2018-04-18T10:08:43.183Z,1027.94
2018-04-18T10:09:43.188Z,1027.88
2018-04-18T10:10:43.395Z,1027.91
2018-04-18T10:11:43.200Z,1027.92
2018-04-18T10:12:43.429Z,1027.90
2018-04-18T10:13:43.205Z,1027.89
2018-04-18T10:14:43.214Z,1027.94
2018-04-18T10:15:43.219Z,1027.93
2018-04-18T10:16:43.298Z,1027.91
2018-04-18T10:17:43.312Z,1027.91
2018-04-18T10:18:43.229Z,1027.91
2018-04-18T10:19:43.229Z,1027.91
2018-04-18T10:20:43.231Z,1027.92
2018-04-18T10:21:43.236Z,1027.91
2018-04-18T10:22:43.244Z,1027.90
2018-04-18T10:23:43.612Z,1027.95
2018-04-18T10:24:43.249Z,1027.99
2018-04-18T10:25:43.254Z,1027.98
2018-04-18T10:26:43.260Z,1027.97
2018-04-18T10:27:43.260Z,1027.97
2018-04-18T10:28:43.265Z,1027.97
2018-04-18T10:29:43.274Z,1027.96
2018-04-18T10:30:43.275Z,1027.96
2018-04-18T10:31:43.362Z,1027.91
2018-04-18T10:32:43.362Z,1027.90
2018-04-18T10:33:43.297Z,1027.88
2018-04-18T10:34:43.292Z,1027.84
2018-04-18T10:35:43.542Z,1027.86
2018-04-18T10:36:43.305Z,1027.86
2018-04-18T10:37:43.353Z,1027.85
2018-04-18T10:38:43.399Z,1027.85
2018-04-18T10:39:43.592Z,1027.86
2018-04-18T10:40:43.314Z,1027.90
2018-04-18T10:41:43.321Z,1027.90
2018-04-18T10:42:43.499Z,1027.88
2018-04-18T10:43:43.330Z,1027.88
2018-04-18T10:44:43.379Z,1027.90
2018-04-18T10:45:43.337Z,1027.88
2018-04-18T10:46:43.360Z,1027.88
2018-04-18T10:47:43.343Z,1027.90
2018-04-18T10:48:43.347Z,1027.92
2018-04-18T10:49:43.362Z,1027.91
2018-04-18T10:50:43.357Z,1027.93
2018-04-18T10:51:43.359Z,1027.90
2018-04-18T10:52:43.368Z,1027.99
2018-04-18T10:53:43.373Z,1027.93
2018-04-18T10:54:43.377Z,1027.92
2018-04-18T10:55:43.570Z,1027.91
2018-04-18T10:56:43.389Z,1027.94
2018-04-18T10:57:43.391Z,1027.95
2018-04-18T10:58:43.398Z,1027.93
2018-04-18T10:59:43.406Z,1027.93
2018-04-18T11:00:43.407Z,1027.92
2018-04-18T11:01:43.410Z,1027.93
2018-04-18T11:02:43.442Z,1027.94
2018-04-18T11:03:43.417Z,1027.91
2018-04-18T11:04:43.426Z,1027.93
2018-04-18T11:05:43.428Z,1027.89
2018-04-18T11:06:43.490Z,1027.88
2018-04-18T11:07:43.437Z,1027.89
2018-04-18T11:08:43.442Z,1027.90
2018-04-18T11:09:43.664Z,1027.95
2018-04-18T11:10:43.454Z,1027.93
2018-04-18T11:11:43.456Z,1027.92
2018-04-18T11:12:43.575Z,1027.91
2018-04-18T11:13:43.462Z,1027.96
2018-04-18T11:14:43.521Z,1027.95
2018-04-18T11:15:43.634Z,1027.96
2018-04-18T11:16:43.482Z,1027.98
2018-04-18T11:17:43.483Z,1027.95
2018-04-18T11:18:43.600Z,1027.94
2018-04-18T11:19:43.491Z,1027.97
2018-04-18T11:20:43.496Z,1027.97
2018-04-18T11:21:43.500Z,1027.98
2018-04-18T11:22:43.562Z,1027.95
2018-04-18T11:23:43.676Z,1027.94
2018-04-18T11:24:43.514Z,1027.92
2018-04-18T11:25:43.518Z,1027.94
2018-04-18T11:26:43.524Z,1027.90
2018-04-18T11:27:43.530Z,1027.91
2018-04-18T11:28:43.534Z,1027.91
2018-04-18T11:29:43.537Z,1027.90
2018-04-18T11:30:43.542Z,1027.93
2018-04-18T11:31:43.674Z,1027.98
2018-04-18T11:32:43.557Z,1027.97
2018-04-18T11:33:43.564Z,1027.92
2018-04-18T11:34:43.561Z,1027.93
2018-04-18T11:35:43.572Z,1027.94
2018-04-18T11:36:43.570Z,1027.91
2018-04-18T11:37:43.576Z,1027.95
2018-04-18T11:38:43.581Z,1027.91
2018-04-18T11:39:43.621Z,1027.87
2018-04-18T11:40:43.591Z,1027.86
2018-04-18T11:41:43.679Z,1027.92
2018-04-18T11:42:43.609Z,1027.92
2018-04-18T11:43:43.619Z,1027.93
2018-04-18T11:44:43.611Z,1027.94
2018-04-18T11:45:43.650Z,1027.94
2018-04-18T11:46:44.015Z,1027.94
2018-04-18T11:47:43.628Z,1027.94
2018-04-18T11:48:43.630Z,1027.93
2018-04-18T11:49:43.635Z,1027.95
2018-04-18T11:50:43.757Z,1028.00
2018-04-18T11:51:43.646Z,1027.95
2018-04-18T11:52:43.705Z,1027.93
2018-04-18T11:53:43.656Z,1027.93
2018-04-18T11:54:43.669Z,1027.98
2018-04-18T11:55:43.667Z,1027.94
2018-04-18T11:56:43.670Z,1027.91
2018-04-18T11:57:43.774Z,1027.88
2018-04-18T11:58:43.811Z,1027.91
2018-04-18T11:59:43.687Z,1027.86
2018-04-18T12:00:43.690Z,1027.84
2018-04-18T12:01:43.731Z,1027.83
2018-04-18T12:02:43.700Z,1027.81
2018-04-18T12:03:43.744Z,1027.86
2018-04-18T12:04:43.846Z,1027.82
2018-04-18T12:05:43.723Z,1027.83